Time;durP1;ratioP1;P1;durP2;ratioP2;P2;SDS_P1;SDS_P2;PMS_P1;PMS_P2;Temp;Humidity;BMP_temperature;BMP_pressure;BME280_temperature;BME280_humidity;BME280_pressure;Samples;Min_cycle;Max_cycle;Signal;HPM_P1;HPM_P2
2022/02/27 00:40:30;;;;;;;28.70;14.50;;;;;;;0.84;75.60;100278.20;31668;1306;3026498;-67
2022/02/27 01:07:15;;;;;;;29.60;13.20;;;;;;;0.41;75.54;100297.47;31306;1320;3026447;-67
2022/02/27 01:44:26;;;;;;;23.40;12.80;;;;;;;0.45;76.49;100306.91;31362;1319;3025967;-66
2022/02/27 01:46:59;;;;;;;32.70;16.70;;;;;;;0.52;76.03;100310.48;24989;1321;3026422;-66
2022/02/27 01:50:24;;;;;;;27.70;14.90;;;;;;;0.54;75.99;100317.73;31334;1321;3026774;-70
2022/02/27 01:52:55;;;;;;;25.50;13.50;;;;;;;1.14;74.70;100312.45;24991;1321;3027129;-66
2022/02/27 01:55:25;;;;;;;20.50;9.90;;;;;;;1.44;72.54;100310.64;24946;1321;3026378;-68
2022/02/27 01:57:54;;;;;;;27.90;11.00;;;;;;;1.08;73.70;100314.41;24855;1323;3027445;-71
2022/02/27 02:10:40;;;;;;;23.90;12.20;;;;;;;0.40;76.34;100328.14;31279;1320;3026358;-69
2022/02/27 02:13:11;;;;;;;25.30;12.60;;;;;;;0.47;76.18;100321.03;24881;1325;3026439;-64
2022/02/27 02:15:41;;;;;;;22.00;10.10;;;;;;;0.54;75.48;100323.23;24996;1321;3026798;-64
2022/02/27 02:18:10;;;;;;;23.00;10.60;;;;;;;0.14;76.63;100325.67;24969;1324;3028297;-67
2022/02/27 02:20:43;;;;;;;15.70;8.40;;;;;;;0.24;77.30;100317.36;25026;1321;3053976;-65
2022/02/27 02:23:09;;;;;;;15.70;8.40;;;;;;;0.78;75.32;100316.54;23657;1319;5503333;-65
2022/02/27 02:29:12;;;;;;;25.10;12.00;;;;;;;0.95;73.78;100324.17;31578;1310;3026037;-64
2022/02/27 02:52:57;;;;;;;17.10;8.30;;;;;;;-0.30;78.45;100339.25;31456;1318;3025965;-66
2022/02/27 02:58:16;;;;;;;17.30;9.20;;;;;;;0.85;74.53;100350.65;31326;1318;3026484;-64
2022/02/27 03:00:45;;;;;;;21.00;11.30;;;;;;;0.86;74.02;100330.63;24976;1320;3026465;-69
2022/02/27 03:15:37;;;;;;;21.40;10.30;;;;;;;0.41;75.51;100342.45;31449;1318;3026195;-66
2022/02/27 03:21:42;;;;;;;22.80;10.30;;;;;;;0.36;75.04;100349.37;31350;1320;3026391;-71
2022/02/27 03:24:47;;;;;;;21.30;9.30;;;;;;;0.42;75.54;100340.20;25003;1321;3054468;-71
2022/02/27 03:27:17;;;;;;;15.50;8.60;;;;;;;0.54;74.92;100336.69;24992;1324;3054082;-71
2022/02/27 03:29:53;;;;;;;18.90;8.10;;;;;;;0.77;74.03;100347.26;25027;1321;3026842;-70
2022/02/27 03:32:47;;;;;;;16.90;7.90;;;;;;;0.74;73.92;100350.54;24991;1321;3049711;-68
2022/02/27 03:36:00;;;;;;;16.90;7.90;;;;;;;0.36;74.82;100353.16;22363;1318;13413240;-66
2022/02/27 03:42:29;;;;;;;17.40;8.40;;;;;;;0.30;75.03;100366.44;25047;1318;3050196;-70
2022/02/27 03:45:26;;;;;;;11.90;6.80;;;;;;;0.07;75.98;100370.85;25086;1318;3052810;-66
2022/02/27 03:48:42;;;;;;;12.90;6.50;;;;;;;-0.02;76.98;100361.91;25069;1317;3049514;-73
2022/02/27 03:51:14;;;;;;;14.50;6.90;;;;;;;0.65;74.85;100373.18;25046;1318;3027522;-65
2022/02/27 03:54:10;;;;;;;17.40;6.60;;;;;;;0.84;73.55;100369.29;25101;1318;3029257;-70
2022/02/27 04:04:54;;;;;;;14.70;7.00;;;;;;;0.09;75.51;100383.24;25055;1316;3056913;-70
2022/02/27 04:07:27;;;;;;;16.50;7.20;;;;;;;-0.05;76.35;100382.94;25120;1318;3052584;-69
2022/02/27 04:11:24;;;;;;;13.60;6.40;;;;;;;-0.23;76.98;100387.98;25067;1318;3053072;-70
2022/02/27 04:14:45;;;;;;;18.70;7.40;;;;;;;-0.31;77.36;100382.64;25146;1316;3051207;-70
2022/02/27 04:17:18;;;;;;;14.00;6.10;;;;;;;-0.21;77.64;100383.84;25104;1318;3068786;-70
2022/02/27 04:20:04;;;;;;;12.90;5.70;;;;;;;0.60;75.49;100387.17;25153;1316;3049490;-71
2022/02/27 04:22:34;;;;;;;14.80;6.00;;;;;;;0.93;73.33;100385.08;25171;1318;3054382;-69
2022/02/27 04:25:04;;;;;;;12.60;5.50;;;;;;;0.78;73.41;100379.31;25049;1318;3027159;-71
2022/02/27 04:27:41;;;;;;;12.80;5.80;;;;;;;0.58;74.27;100383.23;25151;1316;3026596;-70
2022/02/27 04:30:12;;;;;;;13.00;5.50;;;;;;;0.33;74.76;100393.50;25098;1315;3053039;-73
2022/02/27 04:32:51;;;;;;;12.50;6.20;;;;;;;-0.02;76.37;100394.48;25112;1315;3026477;-67
2022/02/27 04:35:29;;;;;;;15.70;7.30;;;;;;;-0.22;77.09;100391.41;25115;1315;3050535;-71
2022/02/27 04:38:24;;;;;;;17.50;7.10;;;;;;;-0.38;77.83;100393.49;25247;1315;3068164;-68
2022/02/27 04:40:55;;;;;;;15.80;6.50;;;;;;;-0.50;78.21;100397.64;25098;1315;3048268;-67
2022/02/27 04:43:26;;;;;;;12.20;5.70;;;;;;;-0.46;78.59;100401.41;25237;1315;3027157;-72
2022/02/27 04:45:59;;;;;;;13.70;5.90;;;;;;;0.12;76.84;100398.21;25104;1315;3028930;-69
2022/02/27 04:48:28;;;;;;;10.20;5.20;;;;;;;0.36;75.30;100400.73;25112;1315;3027464;-72
2022/02/27 04:50:59;;;;;;;13.40;5.60;;;;;;;0.13;75.98;100401.33;25171;1315;3026551;-66
2022/02/27 04:53:32;;;;;;;13.40;6.40;;;;;;;-0.01;76.17;100395.84;25097;1315;3055071;-66
2022/02/27 04:56:04;;;;;;;14.20;6.70;;;;;;;-0.21;77.01;100396.41;25122;1314;3028708;-69
2022/02/27 04:58:34;;;;;;;13.10;6.70;;;;;;;-0.24;77.13;100397.96;25153;1315;3026673;-72
2022/02/27 05:01:07;;;;;;;11.50;6.20;;;;;;;-0.29;77.26;100396.24;25078;1315;3028147;-74
2022/02/27 05:03:40;;;;;;;19.60;6.70;;;;;;;-0.43;77.80;100400.55;25172;1315;3030444;-66
2022/02/27 05:06:11;;;;;;;15.90;6.10;;;;;;;-0.52;78.19;100407.63;25131;1315;3026885;-68
2022/02/27 05:08:44;;;;;;;13.30;6.00;;;;;;;0.02;76.96;100410.83;25085;1315;3055449;-74
2022/02/27 05:11:14;;;;;;;12.70;5.40;;;;;;;0.32;75.51;100413.34;25080;1315;3026540;-71
2022/02/27 05:13:44;;;;;;;12.00;5.80;;;;;;;0.25;75.22;100411.45;25112;1315;3026664;-67
2022/02/27 05:16:14;;;;;;;15.50;6.10;;;;;;;-0.05;76.22;100416.35;25128;1315;3026811;-71
2022/02/27 05:18:44;;;;;;;16.00;6.30;;;;;;;-0.17;76.66;100420.16;25116;1315;3027797;-72
2022/02/27 05:21:20;;;;;;;12.10;6.50;;;;;;;-0.38;77.19;100421.90;25076;1318;3026988;-67
2022/02/27 05:23:50;;;;;;;9.40;5.70;;;;;;;-0.53;77.61;100417.27;25142;1315;3052549;-65
2022/02/27 05:26:30;;;;;;;12.50;6.10;;;;;;;-0.64;78.14;100425.17;25092;1315;3051693;-67
2022/02/27 05:29:08;;;;;;;10.40;5.20;;;;;;;-0.59;78.25;100424.67;25132;1315;3058556;-73
2022/02/27 05:31:45;;;;;;;10.60;5.00;;;;;;;-0.07;76.94;100414.80;25089;1315;3026297;-73
2022/02/27 05:34:39;;;;;;;;;;;;;;;;;;;;;
2022/02/27 05:38:04;;;;;;;9.90;5.90;;;;;;;-0.05;75.92;100424.79;25198;1315;3051113;-72
2022/02/27 05:40:41;;;;;;;14.10;6.10;;;;;;;-0.10;75.97;100421.54;25154;1315;3071734;-72
2022/02/27 05:43:11;;;;;;;16.80;7.20;;;;;;;-0.31;76.46;100417.25;25208;1315;3027853;-73
2022/02/27 05:45:41;;;;;;;15.20;6.90;;;;;;;-0.43;77.08;100416.73;25105;1315;3028322;-69
2022/02/27 05:48:13;;;;;;;14.90;6.70;;;;;;;-0.59;77.63;100426.38;25172;1315;3028362;-70
2022/02/27 05:50:43;;;;;;;11.70;5.90;;;;;;;-0.56;77.86;100423.45;25215;1316;3027808;-72
2022/02/27 05:53:15;;;;;;;16.00;6.50;;;;;;;-0.55;77.91;100425.19;25139;1316;3026366;-70
2022/02/27 05:55:56;;;;;;;11.50;5.80;;;;;;;0.03;76.55;100424.77;25141;1315;3053878;-66
2022/02/27 05:58:34;;;;;;;11.40;5.30;;;;;;;0.67;74.00;100427.83;25114;1315;3051976;-69
2022/02/27 06:01:04;;;;;;;14.00;6.00;;;;;;;0.62;73.28;100431.31;25087;1315;3071577;-72
2022/02/27 06:03:57;;;;;;;12.80;6.30;;;;;;;0.49;73.44;100434.64;25113;1315;3026826;-70
2022/02/27 06:06:30;;;;;;;16.70;6.10;;;;;;;0.40;74.01;100436.75;25182;1315;3052604;-65
2022/02/27 06:09:02;;;;;;;11.30;5.70;;;;;;;0.36;74.01;100432.95;25129;1315;3028667;-73
2022/02/27 06:11:37;;;;;;;18.30;6.70;;;;;;;0.20;74.56;100442.15;25105;1317;3054485;-70
2022/02/27 06:17:06;;;;;;;15.80;7.00;;;;;;;0.14;75.22;100451.11;25093;1315;3055403;-67
2022/02/27 06:19:36;;;;;;;15.10;6.00;;;;;;;0.00;75.43;100459.75;25278;1315;3029052;-65
2022/02/27 06:22:07;;;;;;;8.90;5.10;;;;;;;0.13;74.88;100459.73;25238;1315;3026544;-70
2022/02/27 06:24:36;;;;;;;15.70;6.50;;;;;;;0.80;73.64;100468.46;25186;1315;3027325;-66
2022/02/27 06:27:09;;;;;;;17.50;7.10;;;;;;;1.42;70.75;100467.26;25095;1315;3027088;-71
2022/02/27 06:29:40;;;;;;;18.50;6.30;;;;;;;1.57;70.09;100470.25;25102;1315;3052862;-71
2022/02/27 06:32:09;;;;;;;14.80;6.40;;;;;;;1.58;69.67;100472.84;25149;1316;3029277;-72
2022/02/27 06:34:42;;;;;;;19.00;6.40;;;;;;;1.38;69.68;100476.61;25106;1315;3027252;-65
2022/02/27 06:37:12;;;;;;;17.80;6.80;;;;;;;1.19;70.28;100476.38;25140;1315;3026217;-66
2022/02/27 06:39:41;;;;;;;15.80;7.20;;;;;;;1.15;70.63;100475.20;25152;1315;3026817;-70
2022/02/27 06:42:11;;;;;;;12.20;6.20;;;;;;;1.17;70.28;100471.73;25108;1316;3027213;-72
2022/02/27 06:44:41;;;;;;;20.40;6.70;;;;;;;1.19;69.97;100471.72;25156;1315;3026488;-68
2022/02/27 06:47:11;;;;;;;17.00;6.60;;;;;;;1.23;70.09;100478.26;25082;1318;3026937;-70
2022/02/27 06:49:51;;;;;;;16.10;6.60;;;;;;;1.18;69.73;100480.88;25124;1315;3026853;-74
2022/02/27 06:52:21;;;;;;;17.10;6.30;;;;;;;1.09;70.55;100488.35;25086;1315;3058522;-69
2022/02/27 06:54:51;;;;;;;16.30;6.10;;;;;;;1.21;69.96;100487.77;25076;1318;3031161;-71
2022/02/27 06:57:21;;;;;;;15.90;6.20;;;;;;;1.31;69.60;100493.40;25054;1315;3026550;-68
2022/02/27 06:59:50;;;;;;;12.80;6.00;;;;;;;1.38;69.65;100494.73;25127;1315;3026756;-70
2022/02/27 07:02:20;;;;;;;11.10;6.40;;;;;;;1.46;69.27;100489.85;25154;1315;3026800;-68
2022/02/27 07:04:49;;;;;;;14.70;6.70;;;;;;;1.30;69.27;100493.91;25078;1315;3027323;-68
2022/02/27 07:07:19;;;;;;;14.50;6.30;;;;;;;1.41;69.21;100497.30;25190;1315;3026041;-71
2022/02/27 07:09:58;;;;;;;15.20;6.20;;;;;;;1.47;69.25;100499.86;25108;1315;3028524;-69
2022/02/27 07:12:34;;;;;;;16.50;5.90;;;;;;;1.34;68.79;100502.52;25365;1315;3056024;-71
2022/02/27 07:15:05;;;;;;;11.80;5.50;;;;;;;1.32;68.96;100496.85;25063;1318;3052364;-74
2022/02/27 07:17:37;;;;;;;20.00;6.10;;;;;;;1.48;68.83;100498.29;25113;1315;3026403;-71
2022/02/27 07:20:14;;;;;;;14.70;6.30;;;;;;;1.71;67.96;100503.84;25061;1318;3026597;-66
2022/02/27 07:22:45;;;;;;;13.70;6.20;;;;;;;1.74;67.93;100505.02;25110;1314;3071462;-71
2022/02/27 07:25:15;;;;;;;11.20;5.40;;;;;;;1.65;67.99;100511.99;25145;1315;3026667;-69
2022/02/27 07:27:45;;;;;;;14.20;5.60;;;;;;;1.54;68.51;100510.00;25118;1315;3026856;-70
2022/02/27 07:30:14;;;;;;;9.90;5.30;;;;;;;1.65;68.19;100505.60;25099;1315;3027243;-71
2022/02/27 07:32:47;;;;;;;10.60;4.70;;;;;;;1.83;67.98;100501.84;25142;1318;3028929;-74
2022/02/27 07:35:17;;;;;;;13.60;6.30;;;;;;;1.82;67.77;100502.36;25111;1315;3026357;-71
2022/02/27 07:38:05;;;;;;;16.00;5.20;;;;;;;1.66;68.21;100507.67;25101;1315;3052762;-71
2022/02/27 07:40:36;;;;;;;11.70;5.50;;;;;;;1.79;68.19;100503.42;25095;1314;3025994;-68
2022/02/27 07:43:07;;;;;;;17.30;6.20;;;;;;;1.93;67.68;100500.56;25085;1315;3026983;-67
2022/02/27 07:45:37;;;;;;;20.20;5.70;;;;;;;2.03;67.47;100501.66;25105;1315;3027579;-68
2022/02/27 07:48:16;;;;;;;11.10;5.60;;;;;;;2.24;66.83;100494.91;25132;1318;3052079;-69
2022/02/27 07:50:47;;;;;;;13.90;6.30;;;;;;;2.39;66.22;100495.63;25115;1316;3026448;-69
2022/02/27 07:53:18;;;;;;;14.30;6.20;;;;;;;2.48;66.32;100488.41;25109;1316;3027315;-68
2022/02/27 07:55:48;;;;;;;11.50;5.00;;;;;;;2.70;65.55;100487.14;25115;1315;3027149;-71
2022/02/27 07:58:20;;;;;;;12.90;5.90;;;;;;;2.97;64.58;100482.30;25129;1315;3026214;-72
2022/02/27 08:00:51;;;;;;;13.70;5.70;;;;;;;2.93;64.30;100491.36;25139;1315;3026943;-68
2022/02/27 08:03:25;;;;;;;13.40;5.30;;;;;;;2.99;63.58;100485.21;25124;1315;3026973;-73
2022/02/27 08:05:58;;;;;;;13.00;5.00;;;;;;;2.97;63.12;100487.84;25103;1316;3049647;-70
2022/02/27 08:08:39;;;;;;;11.00;4.60;;;;;;;3.10;62.70;100479.87;25082;1315;3054877;-71
2022/02/27 08:11:12;;;;;;;18.40;5.10;;;;;;;2.99;61.80;100479.68;25099;1318;3052497;-72
2022/02/27 08:13:43;;;;;;;10.10;4.80;;;;;;;3.19;62.10;100481.15;25162;1316;3027264;-66
2022/02/27 08:16:13;;;;;;;10.30;4.30;;;;;;;3.16;61.00;100474.43;25191;1315;3026982;-67
2022/02/27 08:19:09;;;;;;;13.10;5.00;;;;;;;3.22;60.68;100478.16;25187;1315;3055556;-71
2022/02/27 08:21:38;;;;;;;9.10;4.70;;;;;;;3.49;60.70;100479.30;25139;1318;3052446;-69
2022/02/27 08:24:08;;;;;;;11.80;5.10;;;;;;;3.59;59.90;100472.75;25129;1316;3028563;-70
2022/02/27 08:27:06;;;;;;;8.60;4.40;;;;;;;3.67;59.22;100471.23;25099;1318;3030071;-72
2022/02/27 08:29:36;;;;;;;9.10;4.20;;;;;;;3.74;59.18;100468.88;25103;1315;3052063;-67
2022/02/27 08:32:08;;;;;;;14.60;4.90;;;;;;;3.77;58.24;100465.19;25159;1315;3026514;-68
2022/02/27 08:34:37;;;;;;;9.80;5.00;;;;;;;3.94;57.63;100465.58;25112;1316;3026936;-70
2022/02/27 08:37:10;;;;;;;10.90;4.40;;;;;;;4.13;57.31;100465.26;25091;1318;3027343;-69
2022/02/27 08:39:43;;;;;;;8.50;4.00;;;;;;;4.32;56.71;100468.37;25115;1316;3053697;-70
2022/02/27 08:42:17;;;;;;;9.80;4.50;;;;;;;4.40;55.96;100462.67;25151;1315;3026124;-67
2022/02/27 08:45:13;;;;;;;9.80;4.30;;;;;;;4.58;55.80;100461.98;25113;1315;3068555;-71
2022/02/27 08:47:44;;;;;;;8.90;4.00;;;;;;;4.62;54.50;100460.86;25090;1316;3049761;-69
2022/02/27 08:50:14;;;;;;;13.50;4.30;;;;;;;4.69;53.17;100463.66;25048;1318;3027388;-65
2022/02/27 08:52:43;;;;;;;8.20;3.60;;;;;;;4.58;52.36;100464.93;25102;1314;3026639;-71
2022/02/27 08:55:17;;;;;;;8.00;4.20;;;;;;;4.60;52.05;100468.02;25094;1315;3027254;-72
2022/02/27 08:57:50;;;;;;;10.90;4.20;;;;;;;4.71;52.10;100469.88;25069;1315;3051996;-72
2022/02/27 09:00:20;;;;;;;10.60;3.40;;;;;;;4.91;52.13;100471.55;25146;1315;3026167;-72
2022/02/27 09:02:50;;;;;;;9.30;3.30;;;;;;;4.81;50.81;100472.63;25109;1315;3026330;-71
2022/02/27 09:05:20;;;;;;;8.60;3.90;;;;;;;4.76;51.26;100473.08;25067;1315;3027281;-69
2022/02/27 09:08:09;;;;;;;8.30;3.80;;;;;;;4.70;52.28;100469.20;25111;1315;3050805;-73
2022/02/27 09:10:39;;;;;;;9.20;3.50;;;;;;;4.84;51.58;100463.35;25120;1315;3026499;-64
2022/02/27 09:13:09;;;;;;;7.20;3.10;;;;;;;5.06;50.53;100464.45;25130;1315;3029146;-72
2022/02/27 09:15:58;;;;;;;9.50;3.70;;;;;;;5.18;49.34;100464.89;25073;1315;3060777;-70
2022/02/27 09:18:27;;;;;;;6.70;2.90;;;;;;;5.26;49.34;100465.21;25055;1315;3026305;-69
2022/02/27 09:20:56;;;;;;;7.30;3.80;;;;;;;5.35;49.64;100467.09;25016;1315;3028498;-67
2022/02/27 09:23:35;;;;;;;7.00;3.10;;;;;;;5.50;49.26;100472.14;25081;1315;3057317;-73
2022/02/27 09:26:05;;;;;;;7.50;3.50;;;;;;;5.56;49.37;100465.57;25105;1315;3027110;-70
2022/02/27 09:28:35;;;;;;;5.50;3.00;;;;;;;5.60;49.09;100469.48;25091;1315;3026352;-64
2022/02/27 09:31:05;;;;;;;9.60;3.30;;;;;;;5.59;48.75;100472.96;25036;1318;3027424;-70
2022/02/27 09:33:36;;;;;;;8.90;4.10;;;;;;;5.64;48.67;100467.29;25072;1315;3026857;-67
2022/02/27 09:36:10;;;;;;;10.00;4.60;;;;;;;5.78;48.58;100464.51;25099;1315;3027021;-71
2022/02/27 09:38:40;;;;;;;7.20;3.70;;;;;;;5.98;48.08;100459.66;25151;1315;3052725;-67
2022/02/27 09:41:10;;;;;;;6.10;3.00;;;;;;;5.87;47.30;100449.33;24996;1318;3026339;-68
2022/02/27 09:43:41;;;;;;;7.80;3.00;;;;;;;5.88;46.76;100451.77;25063;1317;3029920;-67
2022/02/27 09:46:14;;;;;;;5.00;2.40;;;;;;;6.14;46.15;100445.20;25010;1318;3030530;-69
2022/02/27 09:48:46;;;;;;;7.50;2.60;;;;;;;6.07;45.55;100443.11;25012;1316;3051763;-71
2022/02/27 09:51:16;;;;;;;9.70;3.00;;;;;;;6.18;45.95;100439.52;25084;1315;3027347;-66
2022/02/27 09:53:47;;;;;;;8.50;3.00;;;;;;;6.14;46.30;100446.41;25055;1318;3026557;-68
2022/02/27 09:56:16;;;;;;;7.20;3.40;;;;;;;5.97;46.37;100447.01;25060;1315;3026466;-71
2022/02/27 09:58:46;;;;;;;12.20;3.10;;;;;;;5.54;46.90;100451.02;25137;1315;3026327;-70
2022/02/27 10:01:17;;;;;;;6.60;2.70;;;;;;;5.47;47.12;100451.55;25165;1315;3026418;-73
2022/02/27 10:03:46;;;;;;;10.60;3.60;;;;;;;5.53;47.24;100458.00;25197;1315;3026656;-70
2022/02/27 10:06:19;;;;;;;7.50;3.30;;;;;;;5.42;47.70;100444.18;25356;1315;3049416;-64
2022/02/27 10:08:56;;;;;;;10.30;3.80;;;;;;;5.26;47.97;100446.30;25412;1315;3027079;-64
2022/02/27 10:11:27;;;;;;;7.50;3.60;;;;;;;5.42;48.21;100444.16;25305;1315;3050432;-64
2022/02/27 10:13:57;;;;;;;8.70;3.90;;;;;;;5.43;47.77;100444.52;25118;1315;3026731;-68
2022/02/27 10:16:30;;;;;;;6.70;2.80;;;;;;;5.54;47.75;100442.52;25154;1315;3027642;-69
2022/02/27 10:19:01;;;;;;;7.00;3.20;;;;;;;5.64;47.49;100440.20;25103;1315;3026395;-67
2022/02/27 10:21:50;;;;;;;6.10;3.00;;;;;;;5.63;47.40;100443.67;25179;1315;3052431;-73
2022/02/27 10:24:20;;;;;;;4.60;3.00;;;;;;;5.31;47.33;100443.39;25081;1318;3029423;-73
2022/02/27 10:26:51;;;;;;;10.50;2.90;;;;;;;5.17;47.71;100446.66;25128;1318;3026455;-68
2022/02/27 10:29:22;;;;;;;5.80;2.90;;;;;;;5.03;48.23;100449.73;25105;1315;3027029;-69
2022/02/27 10:31:55;;;;;;;7.30;3.30;;;;;;;5.14;48.68;100447.60;25069;1318;3053568;-70
2022/02/27 10:34:35;;;;;;;7.80;3.20;;;;;;;5.36;48.50;100449.70;25139;1315;3026527;-71
2022/02/27 10:37:09;;;;;;;13.00;4.30;;;;;;;5.34;47.71;100443.15;25114;1315;3048978;-68
2022/02/27 10:39:50;;;;;;;13.80;3.00;;;;;;;5.20;47.27;100445.04;25048;1315;3055691;-76
2022/02/27 10:42:24;;;;;;;6.70;2.30;;;;;;;5.16;46.98;100450.00;25118;1315;3055976;-73
2022/02/27 10:44:54;;;;;;;4.90;2.40;;;;;;;5.15;47.27;100443.58;25124;1315;3057364;-72
2022/02/27 10:47:23;;;;;;;6.20;2.70;;;;;;;4.99;47.10;100446.89;25088;1314;3027172;-71
2022/02/27 10:49:54;;;;;;;11.40;2.80;;;;;;;4.85;47.17;100441.46;25112;1315;3026816;-71
2022/02/27 10:52:26;;;;;;;8.00;3.10;;;;;;;4.80;47.70;100439.83;25066;1318;3026648;-73
2022/02/27 10:54:57;;;;;;;6.00;3.00;;;;;;;5.11;47.40;100435.01;25072;1320;3026823;-75
2022/02/27 10:57:29;;;;;;;8.50;3.20;;;;;;;5.09;47.62;100436.77;25064;1315;3026960;-68
2022/02/27 11:00:03;;;;;;;6.30;2.90;;;;;;;5.17;47.83;100438.15;25090;1315;3029580;-71
2022/02/27 11:02:37;;;;;;;10.20;3.00;;;;;;;5.26;47.86;100437.62;25107;1315;3054736;-71
2022/02/27 11:05:10;;;;;;;9.10;3.10;;;;;;;5.29;47.78;100437.36;25087;1315;3028977;-72
2022/02/27 11:07:47;;;;;;;11.50;3.10;;;;;;;5.01;48.05;100438.85;25090;1314;3027022;-71
2022/02/27 11:10:37;;;;;;;9.20;3.30;;;;;;;5.11;48.11;100439.68;25073;1318;3056169;-69
2022/02/27 11:13:09;;;;;;;9.40;3.40;;;;;;;4.88;47.86;100442.80;25169;1315;3026464;-67
2022/02/27 11:15:39;;;;;;;5.10;2.70;;;;;;;4.77;47.75;100441.29;25096;1316;3028443;-72
2022/02/27 11:18:08;;;;;;;8.00;3.10;;;;;;;4.74;47.89;100434.73;25114;1315;3026228;-72
2022/02/27 11:20:40;;;;;;;10.30;3.20;;;;;;;4.98;47.55;100439.80;25092;1317;3028900;-65
2022/02/27 11:23:11;;;;;;;5.70;2.60;;;;;;;4.90;47.54;100431.45;25080;1316;3026902;-73
2022/02/27 11:25:41;;;;;;;6.20;2.40;;;;;;;4.87;47.55;100430.98;25121;1315;3027549;-69
2022/02/27 11:28:11;;;;;;;7.00;2.50;;;;;;;4.95;47.16;100434.65;25093;1318;3028389;-70
2022/02/27 11:30:41;;;;;;;5.90;2.60;;;;;;;4.75;46.91;100434.23;25077;1318;3026530;-69
2022/02/27 11:33:12;;;;;;;6.50;2.70;;;;;;;4.84;47.11;100437.67;25157;1315;3027331;-74
2022/02/27 11:35:55;;;;;;;4.50;2.50;;;;;;;4.87;46.89;100436.89;25092;1318;3026852;-73
2022/02/27 11:38:28;;;;;;;5.00;2.50;;;;;;;4.67;47.19;100442.19;25105;1318;3049694;-73
2022/02/27 11:41:00;;;;;;;8.50;2.60;;;;;;;4.73;47.67;100438.41;25059;1315;3027538;-70
2022/02/27 11:43:41;;;;;;;6.20;2.50;;;;;;;4.97;47.37;100436.17;25067;1320;3026457;-71
2022/02/27 11:46:11;;;;;;;6.90;2.10;;;;;;;5.09;46.71;100435.38;25109;1315;3057716;-71
2022/02/27 11:49:11;;;;;;;5.60;2.40;;;;;;;5.04;46.05;100438.09;25165;1315;3029355;-71
2022/02/27 11:52:01;;;;;;;4.20;2.10;;;;;;;4.91;45.35;100434.90;25147;1318;3053432;-73
2022/02/27 11:54:45;;;;;;;8.10;2.50;;;;;;;4.89;45.65;100429.41;25055;1318;3052753;-64
2022/02/27 11:57:27;;;;;;;6.10;2.50;;;;;;;5.15;45.23;100433.35;25034;1315;3071552;-72
2022/02/27 11:59:58;;;;;;;3.30;1.90;;;;;;;5.47;45.00;100426.67;25113;1318;3048699;-64
2022/02/27 12:02:30;;;;;;;6.90;2.70;;;;;;;5.70;44.25;100424.91;25112;1315;3026857;-69
2022/02/27 12:05:01;;;;;;;5.20;1.80;;;;;;;5.76;44.10;100424.59;25106;1315;3026559;-72
2022/02/27 12:07:31;;;;;;;4.40;2.30;;;;;;;5.93;43.75;100418.59;25124;1315;3028400;-69
2022/02/27 12:10:02;;;;;;;9.00;2.10;;;;;;;5.75;43.47;100424.08;25050;1318;3028299;-67
2022/02/27 12:12:42;;;;;;;4.60;1.60;;;;;;;5.74;43.78;100422.90;25116;1318;3026903;-70
2022/02/27 12:15:35;;;;;;;9.80;2.10;;;;;;;5.86;43.73;100424.85;25091;1318;3054003;-70
2022/02/27 12:18:07;;;;;;;4.90;1.90;;;;;;;5.87;43.58;100423.59;25083;1316;3071491;-67
2022/02/27 12:20:54;;;;;;;4.90;2.10;;;;;;;5.74;43.99;100426.38;25123;1315;3026665;-72
2022/02/27 12:23:35;;;;;;;4.30;2.30;;;;;;;5.90;43.87;100422.32;25086;1315;3053224;-67
2022/02/27 12:26:36;;;;;;;6.40;2.30;;;;;;;5.86;43.75;100420.32;25111;1315;3055020;-70
2022/02/27 12:29:05;;;;;;;5.90;2.30;;;;;;;5.88;43.94;100414.19;25106;1315;3057828;-73
2022/02/27 12:31:35;;;;;;;7.30;2.60;;;;;;;5.69;43.76;100415.71;25073;1315;3028319;-69
2022/02/27 12:34:09;;;;;;;4.00;1.90;;;;;;;5.82;43.63;100420.59;25140;1318;3051359;-67
2022/02/27 12:36:39;;;;;;;3.30;1.70;;;;;;;5.88;43.24;100423.39;25159;1315;3056977;-71
2022/02/27 12:39:11;;;;;;;3.60;1.60;;;;;;;5.76;43.47;100423.88;25124;1318;3028116;-70
2022/02/27 12:41:44;;;;;;;3.30;1.40;;;;;;;5.70;44.15;100425.08;25083;1316;3029146;-67
2022/02/27 12:44:18;;;;;;;6.20;2.20;;;;;;;5.63;44.52;100426.47;25139;1315;3027955;-71
2022/02/27 12:46:48;;;;;;;5.50;1.80;;;;;;;5.44;44.75;100421.02;25090;1315;3071834;-73
2022/02/27 12:52:16;;;;;;;5.30;1.50;;;;;;;4.77;45.00;100437.27;25151;1315;3055041;-70
2022/02/27 12:54:47;;;;;;;6.40;1.70;;;;;;;4.64;45.21;100432.88;25083;1315;3054035;-70
2022/02/27 12:57:16;;;;;;;5.00;1.80;;;;;;;4.78;45.20;100439.88;25153;1318;3026048;-73
2022/02/27 12:59:47;;;;;;;5.20;1.90;;;;;;;5.08;44.82;100437.16;25120;1315;3026360;-72
2022/02/27 13:02:21;;;;;;;5.20;1.90;;;;;;;5.38;44.09;100432.80;25149;1315;3027834;-72
2022/02/27 13:04:55;;;;;;;3.50;1.70;;;;;;;5.50;43.59;100430.95;25082;1315;3054555;-71
2022/02/27 13:07:25;;;;;;;6.50;2.20;;;;;;;5.43;44.04;100425.73;25100;1318;3068930;-73
2022/02/27 13:09:54;;;;;;;6.00;2.00;;;;;;;5.61;44.04;100430.17;25149;1315;3027228;-67
2022/02/27 13:12:25;;;;;;;16.70;1.80;;;;;;;5.64;43.87;100427.14;25080;1318;3026537;-71
2022/02/27 13:15:00;;;;;;;7.20;1.70;;;;;;;5.66;44.04;100430.41;25102;1315;3027226;-72
2022/02/27 13:17:49;;;;;;;3.90;2.00;;;;;;;5.69;44.03;100429.45;25135;1315;3056474;-72
2022/02/27 13:20:19;;;;;;;4.10;2.00;;;;;;;5.44;44.03;100428.50;25151;1315;3028004;-73
2022/02/27 13:22:52;;;;;;;7.70;1.70;;;;;;;5.38;44.05;100440.96;25117;1315;3027579;-69
2022/02/27 13:25:41;;;;;;;4.20;1.50;;;;;;;5.11;44.76;100435.00;25111;1315;3051608;-67
2022/02/27 13:28:11;;;;;;;4.70;1.70;;;;;;;5.04;45.22;100439.66;25130;1315;3029842;-70
2022/02/27 13:30:40;;;;;;;5.90;2.20;;;;;;;4.94;45.61;100448.21;25141;1315;3026842;-68
2022/02/27 13:33:11;;;;;;;6.70;1.80;;;;;;;5.00;45.73;100446.86;25081;1318;3028386;-72
2022/02/27 13:35:42;;;;;;;5.00;1.60;;;;;;;4.94;45.59;100445.95;25136;1315;3026167;-65
2022/02/27 13:38:19;;;;;;;;;;;;;;;4.93;45.58;100450.30;25157;1315;3056179;-72
2022/02/27 13:40:51;;;;;;;4.60;1.90;;;;;;;4.90;45.36;100455.93;25089;1315;3049393;-69
2022/02/27 13:43:24;;;;;;;5.10;2.20;;;;;;;4.68;45.21;100455.71;25101;1316;3052260;-69
2022/02/27 13:45:55;;;;;;;4.40;1.90;;;;;;;4.80;44.69;100452.52;25170;1315;3026490;-67
2022/02/27 13:48:28;;;;;;;12.00;2.60;;;;;;;4.74;44.65;100456.09;25172;1318;3027004;-71
2022/02/27 13:50:58;;;;;;;5.20;2.20;;;;;;;4.94;44.55;100452.39;25099;1315;3026189;-72
2022/02/27 13:53:29;;;;;;;8.30;2.10;;;;;;;4.96;44.44;100451.46;25074;1315;3026985;-69
2022/02/27 13:56:11;;;;;;;7.60;2.30;;;;;;;5.02;44.61;100449.24;25117;1315;3027492;-72
2022/02/27 13:58:44;;;;;;;6.20;2.40;;;;;;;5.05;44.69;100453.72;25115;1315;3056449;-75
2022/02/27 14:01:15;;;;;;;6.40;2.20;;;;;;;5.08;44.76;100455.20;25131;1315;3026491;-70
2022/02/27 14:03:48;;;;;;;5.50;2.20;;;;;;;4.97;45.19;100458.04;25157;1317;3027091;-73
2022/02/27 14:06:18;;;;;;;5.30;2.10;;;;;;;4.85;45.50;100466.80;25135;1315;3029388;-65
2022/02/27 14:08:56;;;;;;;4.90;2.00;;;;;;;4.72;45.68;100466.73;25109;1314;3026611;-68
2022/02/27 14:11:26;;;;;;;7.10;2.40;;;;;;;4.83;45.67;100470.48;25092;1318;3049448;-67
2022/02/27 14:14:04;;;;;;;6.60;2.20;;;;;;;4.85;45.57;100466.48;25101;1315;3028604;-68
2022/02/27 14:16:34;;;;;;;4.50;1.80;;;;;;;4.78;45.53;100473.55;25090;1315;3053974;-73
2022/02/27 14:19:11;;;;;;;6.10;2.10;;;;;;;4.41;45.66;100470.46;25163;1315;3026909;-70
2022/02/27 14:21:42;;;;;;;3.90;1.90;;;;;;;4.38;45.78;100473.66;25087;1318;3050030;-73
2022/02/27 14:24:21;;;;;;;7.50;2.70;;;;;;;4.23;46.14;100472.52;25148;1315;3026405;-73
2022/02/27 14:27:02;;;;;;;7.70;2.50;;;;;;;4.17;46.15;100479.94;25210;1316;3051779;-64
2022/02/27 14:29:35;;;;;;;8.20;2.50;;;;;;;4.22;46.00;100477.92;25510;1315;3067346;-64
2022/02/27 14:32:21;;;;;;;;;;;;;;;4.40;45.88;100475.86;25536;1315;3048594;-64
2022/02/27 14:34:52;;;;;;;8.00;2.50;;;;;;;4.41;45.83;100474.80;25365;1315;3052608;-68
2022/02/27 14:37:22;;;;;;;8.60;3.10;;;;;;;4.46;45.80;100473.31;25082;1315;3026669;-70
2022/02/27 14:40:02;;;;;;;7.10;3.00;;;;;;;4.48;45.83;100469.63;25111;1315;3026709;-67